Time;durP1;ratioP1;P1;durP2;ratioP2;P2;SDS_P1;SDS_P2;PMS_P1;PMS_P2;Temp;Humidity;BMP_temperature;BMP_pressure;BME280_temperature;BME280_humidity;BME280_pressure;Samples;Min_cycle;Max_cycle;Signal;HPM_P1;HPM_P2
2021/05/17 00:01:04;;;;;;;0.60;0.50;;;;;;;8.88;80.70;95420.56;5081163;28;20043;-74
2021/05/17 00:03:31;;;;;;;0.68;0.35;;;;;;;8.88;80.80;95420.56;5086989;28;20384;-74
2021/05/17 00:05:58;;;;;;;0.40;0.20;;;;;;;8.87;80.87;95424.19;5083365;28;20040;-74
2021/05/17 00:08:25;;;;;;;0.60;0.60;;;;;;;8.89;81.29;95432.59;5079907;28;20032;-74
2021/05/17 00:10:52;;;;;;;0.30;0.30;;;;;;;8.89;81.32;95437.03;5085778;28;20032;-74
2021/05/17 00:13:18;;;;;;;0.90;0.30;;;;;;;8.89;81.27;95424.75;5091593;28;20518;-74
2021/05/17 00:15:45;;;;;;;0.30;0.30;;;;;;;8.90;81.19;95426.34;5082942;28;20044;-74
2021/05/17 00:18:11;;;;;;;0.47;0.43;;;;;;;8.91;81.37;95425.31;5091317;28;20027;-74
2021/05/17 00:20:38;;;;;;;0.20;0.20;;;;;;;8.93;81.34;95425.88;5084512;28;20055;-75
2021/05/17 00:23:04;;;;;;;0.50;0.50;;;;;;;8.91;81.19;95435.00;5075707;28;20036;-74
2021/05/17 00:25:31;;;;;;;0.90;0.38;;;;;;;8.87;81.24;95428.63;5092320;28;20047;-73
2021/05/17 00:27:58;;;;;;;0.75;0.50;;;;;;;8.83;81.42;95430.13;5085391;28;20036;-75
2021/05/17 00:30:27;;;;;;;0.60;0.40;;;;;;;8.82;81.54;95431.13;5089160;28;20045;-74
2021/05/17 00:32:55;;;;;;;0.85;0.50;;;;;;;8.85;81.93;95428.06;5087061;28;20044;-74
2021/05/17 00:35:22;;;;;;;0.60;0.40;;;;;;;8.84;81.62;95429.91;5084879;28;20055;-74
2021/05/17 00:37:49;;;;;;;0.32;0.32;;;;;;;8.82;81.83;95431.94;5094795;28;20044;-74
2021/05/17 00:40:18;;;;;;;0.40;0.40;;;;;;;8.82;82.17;95426.72;5079911;28;20052;-75
2021/05/17 00:42:44;;;;;;;0.50;0.40;;;;;;;8.86;82.15;95429.66;5089854;28;20091;-75
2021/05/17 00:45:15;;;;;;;0.40;0.40;;;;;;;8.86;82.20;95427.84;5094699;28;20110;-75
2021/05/17 00:47:46;;;;;;;0.38;0.30;;;;;;;8.82;82.18;95420.69;5083395;28;20039;-74
2021/05/17 00:50:17;;;;;;;1.00;0.43;;;;;;;8.78;82.23;95427.38;5081457;28;20111;-74
2021/05/17 00:52:44;;;;;;;1.13;0.30;;;;;;;8.76;82.27;95427.63;5089748;28;20396;-75
2021/05/17 00:55:12;;;;;;;0.32;0.32;;;;;;;8.77;82.50;95433.66;5077077;28;20059;-75
2021/05/17 00:57:38;;;;;;;0.88;0.40;;;;;;;8.77;82.88;95424.00;5080321;28;20032;-74
2021/05/17 01:00:07;;;;;;;0.47;0.40;;;;;;;8.77;82.98;95428.44;5092937;28;20040;-75
2021/05/17 01:02:34;;;;;;;0.45;0.25;;;;;;;8.77;82.99;95424.00;5082846;28;20032;-74
2021/05/17 01:05:00;;;;;;;0.25;0.25;;;;;;;8.80;83.04;95413.09;5079753;28;20047;-74
2021/05/17 01:07:29;;;;;;;0.20;0.20;;;;;;;8.81;83.04;95419.09;5086452;28;20063;-74
2021/05/17 01:09:57;;;;;;;0.52;0.50;;;;;;;8.81;82.94;95413.88;5089326;28;20043;-74
2021/05/17 01:12:26;;;;;;;3.15;0.40;;;;;;;8.80;83.07;95413.09;5084285;28;20036;-74
2021/05/17 01:14:57;;;;;;;0.30;0.30;;;;;;;8.76;83.11;95419.81;5092945;28;20043;-74
2021/05/17 01:17:26;;;;;;;0.73;0.52;;;;;;;8.76;83.02;95405.91;5078054;28;20453;-74
2021/05/17 01:19:59;;;;;;;0.55;0.55;;;;;;;8.73;83.45;95412.41;5080915;28;20028;-74
2021/05/17 01:22:34;;;;;;;0.77;0.47;;;;;;;8.71;83.10;95411.84;5089285;28;20040;-74
2021/05/17 01:25:00;;;;;;;0.88;0.40;;;;;;;8.71;83.28;95404.81;5082587;28;20051;-74
2021/05/17 01:27:26;;;;;;;0.77;0.40;;;;;;;8.70;83.32;95407.66;5091545;28;20051;-75
2021/05/17 01:29:53;;;;;;;0.40;0.40;;;;;;;8.68;83.22;95410.50;5093797;28;20031;-74
2021/05/17 01:32:19;;;;;;;0.40;0.30;;;;;;;8.67;83.43;95403.69;5087723;28;20036;-74
2021/05/17 01:34:46;;;;;;;0.60;0.30;;;;;;;8.68;83.21;95412.31;5083737;28;20052;-74
2021/05/17 01:37:13;;;;;;;0.30;0.30;;;;;;;8.69;83.46;95417.31;5066089;28;20377;-74
2021/05/17 01:39:42;;;;;;;1.15;0.30;;;;;;;8.71;83.48;95412.66;5083191;28;20047;-74
2021/05/17 01:42:09;;;;;;;0.30;0.30;;;;;;;8.77;83.47;95417.97;5084458;28;20055;-74
2021/05/17 01:44:38;;;;;;;0.43;0.30;;;;;;;8.77;83.12;95423.19;5092020;28;20054;-74
2021/05/17 01:47:05;;;;;;;0.50;0.25;;;;;;;8.76;82.90;95424.22;5084208;28;20041;-74
2021/05/17 01:49:32;;;;;;;0.40;0.38;;;;;;;8.77;83.23;95428.44;5085177;28;20048;-74
2021/05/17 01:52:00;;;;;;;0.30;0.30;;;;;;;8.77;82.92;95420.59;5083242;28;20040;-74
2021/05/17 01:54:30;;;;;;;0.65;0.30;;;;;;;8.77;83.21;95415.34;5093235;28;20040;-74
2021/05/17 01:56:57;;;;;;;0.30;0.30;;;;;;;8.77;82.91;95428.44;5088800;28;20430;-74
2021/05/17 01:59:31;;;;;;;0.20;0.20;;;;;;;8.76;83.56;95425.03;5089719;28;20040;-74
2021/05/17 02:01:58;;;;;;;;;;;;;;;8.76;84.10;95429.44;5084113;28;20050;-73
2021/05/17 02:04:27;;;;;;;0.95;0.50;;;;;;;8.71;83.27;95425.72;5080625;28;19912;-74
2021/05/17 02:06:54;;;;;;;0.80;0.30;;;;;;;8.69;83.42;95416.50;5084405;28;20037;-73
2021/05/17 02:09:21;;;;;;;0.28;0.28;;;;;;;8.66;83.31;95416.97;5089763;28;20040;-74
2021/05/17 02:11:47;;;;;;;0.65;0.25;;;;;;;8.60;82.97;95418.69;5085383;28;20401;-73
2021/05/17 02:14:16;;;;;;;0.30;0.30;;;;;;;8.59;83.31;95413.69;5082878;28;20043;-74
2021/05/17 02:16:42;;;;;;;0.30;0.30;;;;;;;8.59;83.57;95416.28;5082366;28;20043;-74
2021/05/17 02:19:09;;;;;;;0.50;0.50;;;;;;;8.57;83.11;95415.72;5080017;28;20037;-74
2021/05/17 02:21:35;;;;;;;0.75;0.43;;;;;;;8.52;83.10;95414.63;5092515;28;20047;-74
2021/05/17 02:24:08;;;;;;;0.40;0.30;;;;;;;8.49;83.22;95411.66;5082017;28;20045;-74
2021/05/17 02:26:34;;;;;;;0.40;0.40;;;;;;;8.46;83.58;95415.53;5089705;28;20032;-74
2021/05/17 02:29:02;;;;;;;0.40;0.40;;;;;;;8.46;83.45;95401.66;5092762;28;20488;-74
2021/05/17 02:31:28;;;;;;;1.08;0.32;;;;;;;8.44;83.48;95404.53;5084877;28;20055;-74
2021/05/17 02:33:54;;;;;;;0.65;0.47;;;;;;;8.44;83.64;95411.56;5081600;28;20036;-74
2021/05/17 02:36:21;;;;;;;0.85;0.40;;;;;;;8.45;83.55;95413.16;5089069;28;20051;-74
2021/05/17 02:38:47;;;;;;;0.30;0.30;;;;;;;8.44;83.35;95411.56;5093233;28;20052;-74
2021/05/17 02:41:15;;;;;;;0.20;0.20;;;;;;;8.44;83.38;95411.56;5092670;28;20504;-74
2021/05/17 02:43:42;;;;;;;0.55;0.28;;;;;;;8.44;83.27;95416.78;5091804;28;20040;-74
2021/05/17 02:46:08;;;;;;;0.20;0.20;;;;;;;8.43;83.40;95417.81;5085239;28;20048;-74
2021/05/17 02:48:41;;;;;;;0.40;0.40;;;;;;;8.43;83.65;95421.22;5087691;28;20499;-74
2021/05/17 02:51:09;;;;;;;0.68;0.38;;;;;;;8.45;83.52;95418.38;5090001;28;20074;-74
2021/05/17 02:53:36;;;;;;;0.35;0.32;;;;;;;8.47;83.33;95421.56;5090089;28;20036;-75
2021/05/17 02:56:17;;;;;;;0.30;0.30;;;;;;;8.46;83.58;95422.56;5088946;28;20044;-74
2021/05/17 02:58:45;;;;;;;1.15;0.30;;;;;;;8.48;83.63;95436.19;5093160;28;20032;-74
2021/05/17 03:01:25;;;;;;;0.70;0.43;;;;;;;8.47;83.39;95429.41;5087412;28;20040;-74
2021/05/17 03:03:53;;;;;;;0.57;0.50;;;;;;;8.45;83.30;95432.22;5095665;28;20052;-74
2021/05/17 03:06:21;;;;;;;0.30;0.30;;;;;;;8.40;82.98;95432.09;5096378;28;20051;-74
2021/05/17 03:08:50;;;;;;;0.47;0.40;;;;;;;8.33;83.09;95429.59;5084141;28;20040;-74
2021/05/17 03:11:20;;;;;;;0.38;0.30;;;;;;;8.32;83.31;95435.06;5093465;28;20043;-74
2021/05/17 03:13:48;;;;;;;0.30;0.30;;;;;;;8.30;83.13;95431.88;5094506;28;20035;-74
2021/05/17 03:16:15;;;;;;;0.32;0.32;;;;;;;8.31;83.47;95443.91;5083913;28;20393;-74
2021/05/17 03:18:42;;;;;;;0.20;0.20;;;;;;;8.33;83.53;95434.03;5086125;28;20057;-74
2021/05/17 03:21:09;;;;;;;0.50;0.50;;;;;;;8.39;83.61;95434.94;5086634;28;20051;-74
2021/05/17 03:23:35;;;;;;;0.50;0.35;;;;;;;8.41;83.39;95433.72;5085502;28;20465;-74
2021/05/17 03:26:02;;;;;;;0.30;0.30;;;;;;;8.41;83.39;95438.16;5092717;28;20485;-74
2021/05/17 03:28:29;;;;;;;1.17;0.50;;;;;;;8.39;83.01;95442.78;5090322;28;20051;-74
2021/05/17 03:30:55;;;;;;;0.82;0.80;;;;;;;8.31;83.00;95439.47;5082831;28;20048;-74
2021/05/17 03:33:21;;;;;;;0.95;0.93;;;;;;;8.30;83.23;95442.31;5093399;28;20047;-74
2021/05/17 03:35:47;;;;;;;0.70;0.70;;;;;;;8.31;83.34;95439.47;5091174;28;20052;-74
2021/05/17 03:38:13;;;;;;;2.20;0.80;;;;;;;8.33;83.50;95453.09;5089798;28;20059;-75
2021/05/17 03:40:40;;;;;;;0.75;0.60;;;;;;;8.35;83.44;95458.09;5081422;28;20028;-74
2021/05/17 03:43:06;;;;;;;0.32;0.32;;;;;;;8.35;83.34;95455.50;5092114;28;20044;-74
2021/05/17 03:45:32;;;;;;;0.50;0.50;;;;;;;8.36;83.28;95456.28;5081724;28;20047;-75
2021/05/17 03:47:58;;;;;;;0.77;0.47;;;;;;;8.36;83.47;95462.31;5088851;28;20052;-74
2021/05/17 03:50:24;;;;;;;1.27;0.57;;;;;;;8.35;83.32;95460.72;5089391;28;20499;-74
2021/05/17 03:52:51;;;;;;;0.68;0.43;;;;;;;8.34;83.34;95470.38;5086804;28;20043;-73
2021/05/17 03:55:18;;;;;;;0.30;0.30;;;;;;;8.31;83.14;95467.41;5090258;28;20392;-74
2021/05/17 03:57:44;;;;;;;1.27;0.60;;;;;;;8.29;83.35;95470.28;5084647;28;20047;-74
2021/05/17 04:00:12;;;;;;;0.55;0.50;;;;;;;8.29;83.40;95478.09;5095605;28;20036;-74
2021/05/17 04:02:40;;;;;;;0.68;0.60;;;;;;;8.32;83.39;95471.63;5081244;28;20044;-74
2021/05/17 04:15:38;;;;;;;0.57;0.43;;;;;;;8.23;83.58;95489.47;5076398;28;20047;-74
2021/05/17 04:18:04;;;;;;;0.47;0.47;;;;;;;8.19;83.66;95495.34;5085947;28;20477;-74
2021/05/17 04:20:30;;;;;;;0.95;0.60;;;;;;;8.17;83.79;95498.19;5088103;28;20056;-74
2021/05/17 04:22:56;;;;;;;0.85;0.68;;;;;;;8.18;83.78;95491.94;5093302;28;20416;-74
2021/05/17 04:25:24;;;;;;;1.17;0.50;;;;;;;8.19;83.64;95493.53;5087812;28;20045;-74
2021/05/17 04:27:50;;;;;;;1.65;0.47;;;;;;;8.22;83.41;95494.91;5086654;28;20044;-74
2021/05/17 04:30:17;;;;;;;0.35;0.30;;;;;;;8.24;83.50;95501.47;5088489;28;20041;-74
2021/05/17 04:32:43;;;;;;;0.40;0.30;;;;;;;8.25;83.33;95500.47;5089391;28;20066;-74
2021/05/17 04:35:10;;;;;;;0.38;0.20;;;;;;;8.22;82.85;95493.06;5081028;28;20049;-74
2021/05/17 04:37:36;;;;;;;0.20;0.20;;;;;;;8.20;82.71;95502.94;5086140;28;20440;-74
2021/05/17 04:40:04;;;;;;;0.30;0.30;;;;;;;8.21;82.74;95503.75;5088572;28;20044;-74
2021/05/17 04:42:30;;;;;;;0.30;0.30;;;;;;;8.22;82.81;95506.13;5085822;28;20047;-74
2021/05/17 04:44:56;;;;;;;0.88;0.22;;;;;;;8.23;83.08;95505.13;5084575;28;20043;-74
2021/05/17 04:47:22;;;;;;;1.10;0.40;;;;;;;8.25;82.56;95507.50;5084044;28;20404;-74
2021/05/17 04:49:48;;;;;;;1.55;0.38;;;;;;;8.27;82.73;95511.50;5089752;28;20399;-75
2021/05/17 04:52:15;;;;;;;0.20;0.20;;;;;;;8.32;82.78;95503.75;5079946;28;20412;-74
2021/05/17 04:54:41;;;;;;;0.52;0.30;;;;;;;8.48;82.98;95514.56;5081194;28;20488;-74
2021/05/17 04:57:07;;;;;;;0.38;0.30;;;;;;;8.88;83.20;95517.31;5086019;28;20048;-74
2021/05/17 04:59:33;;;;;;;0.85;0.43;;;;;;;9.45;83.22;95518.38;5085405;28;20051;-74
2021/05/17 05:01:59;;;;;;;0.30;0.30;;;;;;;9.90;81.80;95513.19;5093390;28;20040;-74
2021/05/17 05:04:26;;;;;;;1.13;0.40;;;;;;;10.36;81.12;95507.91;5094283;28;20044;-74
2021/05/17 05:06:52;;;;;;;0.30;0.30;;;;;;;10.67;79.68;95514.41;5083209;28;20036;-74
2021/05/17 05:09:18;;;;;;;1.85;0.50;;;;;;;11.14;80.62;95515.78;5089756;28;20040;-73
2021/05/17 05:11:44;;;;;;;0.50;0.30;;;;;;;11.77;79.23;95505.72;5084120;28;20384;-74
2021/05/17 05:14:10;;;;;;;0.32;0.30;;;;;;;12.19;78.29;95511.09;5081439;28;20059;-74
2021/05/17 05:16:36;;;;;;;0.20;0.20;;;;;;;12.17;75.72;95521.06;5084107;28;20033;-74
2021/05/17 05:19:03;;;;;;;0.35;0.22;;;;;;;12.26;75.08;95512.72;5086649;28;20037;-74
2021/05/17 05:21:29;;;;;;;0.17;0.17;;;;;;;12.42;74.77;95508.41;5084856;28;20069;-74
2021/05/17 05:23:55;;;;;;;0.40;0.20;;;;;;;12.32;72.70;95512.50;5083884;28;20408;-74
2021/05/17 05:31:22;;;;;;;0.28;0.28;;;;;;;12.43;71.61;95513.41;5088605;28;20051;-74
2021/05/17 05:33:48;;;;;;;0.20;0.20;;;;;;;12.67;71.11;95507.78;5086987;28;20043;-74
2021/05/17 05:36:15;;;;;;;0.20;0.20;;;;;;;12.51;69.50;95506.88;5082252;28;20048;-75
2021/05/17 05:38:41;;;;;;;0.35;0.35;;;;;;;12.04;69.01;95516.25;5084367;28;20048;-74
2021/05/17 05:41:07;;;;;;;0.35;0.28;;;;;;;11.52;68.50;95519.38;5090064;28;20044;-74
2021/05/17 05:43:33;;;;;;;0.13;0.13;;;;;;;11.01;68.83;95521.41;5084191;28;20063;-75
2021/05/17 05:46:00;;;;;;;0.40;0.13;;;;;;;10.60;69.59;95524.25;5080178;28;20044;-75
2021/05/17 05:48:26;;;;;;;0.30;0.30;;;;;;;10.31;70.19;95521.75;5082534;28;20040;-75
2021/05/17 05:50:52;;;;;;;0.35;0.20;;;;;;;10.13;70.55;95527.19;5087205;28;20028;-73
2021/05/17 05:53:19;;;;;;;0.10;0.10;;;;;;;9.95;70.79;95536.84;5081576;28;20032;-75
2021/05/17 05:55:46;;;;;;;0.10;0.10;;;;;;;9.81;70.95;95532.16;5077660;28;20040;-74
2021/05/17 05:58:14;;;;;;;0.30;0.30;;;;;;;9.64;71.18;95532.09;5083749;28;20040;-75
2021/05/17 06:00:41;;;;;;;0.20;0.20;;;;;;;9.55;71.51;95539.53;5088499;28;20036;-74
2021/05/17 06:03:07;;;;;;;0.40;0.20;;;;;;;9.53;71.94;95547.63;5085291;28;20059;-74
2021/05/17 06:05:33;;;;;;;0.20;0.20;;;;;;;9.52;72.27;95548.63;5083583;28;20051;-75
2021/05/17 06:08:01;;;;;;;0.30;0.30;;;;;;;9.54;72.54;95558.88;5083280;28;20469;-74
2021/05/17 06:10:27;;;;;;;0.15;0.15;;;;;;;9.53;72.53;95563.31;5083267;28;20036;-75
2021/05/17 06:12:56;;;;;;;0.73;0.32;;;;;;;9.50;72.84;95552.53;5083871;28;20041;-75
2021/05/17 06:15:22;;;;;;;1.55;0.40;;;;;;;9.49;73.06;95559.59;5080335;28;20037;-77
2021/05/17 06:17:49;;;;;;;0.30;0.30;;;;;;;9.46;73.27;95561.88;5088512;28;20032;-75
2021/05/17 06:20:16;;;;;;;0.95;0.47;;;;;;;9.47;73.32;95558.22;5084359;28;20040;-75
2021/05/17 06:22:42;;;;;;;0.57;0.40;;;;;;;9.42;73.76;95565.97;5081637;28;20044;-76
2021/05/17 06:25:11;;;;;;;0.57;0.40;;;;;;;9.42;74.16;95563.34;5083677;28;20044;-75
2021/05/17 06:27:38;;;;;;;0.60;0.50;;;;;;;9.41;74.38;95561.75;5086585;28;20060;-75
2021/05/17 06:30:08;;;;;;;0.77;0.50;;;;;;;9.34;74.46;95569.72;5090528;28;20043;-75
2021/05/17 06:32:36;;;;;;;1.10;0.50;;;;;;;9.26;74.68;95568.28;5080257;28;20028;-75
2021/05/17 06:35:08;;;;;;;0.22;0.22;;;;;;;9.20;75.73;95577.06;5080988;28;20055;-75
2021/05/17 06:37:35;;;;;;;0.63;0.60;;;;;;;9.16;75.14;95581.16;5086517;28;20041;-75
2021/05/17 06:40:01;;;;;;;0.70;0.50;;;;;;;9.19;75.30;95583.28;5082852;28;20032;-75
2021/05/17 06:42:28;;;;;;;0.47;0.40;;;;;;;9.21;75.82;95583.88;5082747;28;20032;-75
2021/05/17 06:44:54;;;;;;;1.20;0.45;;;;;;;9.25;76.06;95582.38;5081446;28;20051;-74
2021/05/17 06:47:21;;;;;;;0.77;0.35;;;;;;;9.28;76.44;95591.59;5080362;28;20458;-74
2021/05/17 06:49:48;;;;;;;1.20;0.60;;;;;;;9.29;76.46;95588.75;5085612;28;20037;-74
2021/05/17 06:52:15;;;;;;;2.28;0.60;;;;;;;9.32;76.93;95600.56;5084648;28;20043;-74
2021/05/17 06:54:43;;;;;;;1.55;0.63;;;;;;;9.38;77.27;95604.09;5080222;28;20058;-74
2021/05/17 06:57:22;;;;;;;1.02;0.65;;;;;;;9.44;77.53;95600.56;5081674;28;20041;-74
2021/05/17 06:59:54;;;;;;;1.60;0.60;;;;;;;9.51;77.90;95604.63;5085065;28;20396;-74
2021/05/17 07:02:22;;;;;;;0.77;0.52;;;;;;;9.59;78.04;95605.28;5088308;28;20044;-74
2021/05/17 07:04:50;;;;;;;0.77;0.50;;;;;;;9.64;77.80;95616.66;5084294;28;20368;-74
2021/05/17 07:07:31;;;;;;;1.38;0.60;;;;;;;9.64;77.34;95618.47;5079456;28;20075;-74
2021/05/17 07:12:43;;;;;;;0.45;0.45;;;;;;;9.68;77.50;95612.56;5089803;28;20036;-74
2021/05/17 07:15:09;;;;;;;1.27;0.50;;;;;;;9.81;77.85;95614.13;5081119;28;20468;-74
2021/05/17 07:17:36;;;;;;;0.43;0.40;;;;;;;9.93;77.68;95609.63;5075440;28;20111;-74
2021/05/17 07:20:02;;;;;;;0.55;0.43;;;;;;;10.05;77.34;95617.41;5081351;28;20052;-74
2021/05/17 07:25:14;;;;;;;;;;;;;;;10.19;77.44;95620.56;5089228;28;20047;-74
2021/05/17 07:27:40;;;;;;;1.27;0.50;;;;;;;10.20;76.74;95622.13;5078078;28;19915;-74
2021/05/17 07:30:07;;;;;;;1.02;0.65;;;;;;;10.20;77.09;95624.75;5077785;28;20380;-74
2021/05/17 07:32:34;;;;;;;0.45;0.45;;;;;;;10.16;76.53;95629.69;5082964;28;20051;-74
2021/05/17 07:35:01;;;;;;;1.05;0.40;;;;;;;10.13;76.92;95632.75;5088345;28;20056;-74
2021/05/17 07:37:28;;;;;;;0.50;0.50;;;;;;;10.15;76.77;95635.94;5089518;28;20388;-74
2021/05/17 07:39:54;;;;;;;0.40;0.30;;;;;;;10.15;76.44;95637.78;5086393;28;20075;-73
2021/05/17 07:42:21;;;;;;;0.40;0.30;;;;;;;10.22;76.79;95638.41;5081855;28;20492;-73
2021/05/17 07:44:48;;;;;;;0.22;0.22;;;;;;;10.38;76.54;95631.66;5087736;28;20036;-74
2021/05/17 07:47:15;;;;;;;0.50;0.50;;;;;;;10.51;76.16;95636.59;5086287;28;20048;-74
2021/05/17 07:49:43;;;;;;;0.40;0.40;;;;;;;10.61;75.36;95633.34;5088759;28;20468;-74
2021/05/17 07:52:10;;;;;;;0.47;0.30;;;;;;;10.68;75.36;95638.44;5083559;28;20040;-74
2021/05/17 07:54:37;;;;;;;0.63;0.38;;;;;;;10.72;74.70;95645.56;5085126;28;20491;-74
2021/05/17 07:57:05;;;;;;;0.40;0.38;;;;;;;10.84;74.30;95644.72;5084523;28;20424;-74
2021/05/17 07:59:32;;;;;;;0.40;0.40;;;;;;;11.40;74.94;95642.09;5087304;28;20037;-74
2021/05/17 08:02:00;;;;;;;0.80;0.20;;;;;;;12.01;73.45;95645.50;5087203;28;20461;-74
2021/05/17 08:04:26;;;;;;;0.40;0.30;;;;;;;12.40;72.35;95650.63;5080390;28;20028;-74
2021/05/17 08:06:53;;;;;;;0.98;0.30;;;;;;;12.67;71.41;95640.06;5086949;28;20040;-74
2021/05/17 08:09:19;;;;;;;1.20;0.43;;;;;;;13.09;70.83;95644.59;5088980;28;20036;-74
2021/05/17 08:11:46;;;;;;;1.67;0.30;;;;;;;13.34;69.57;95641.38;5081798;28;20044;-74
2021/05/17 08:14:13;;;;;;;0.28;0.28;;;;;;;13.45;68.95;95636.94;5085996;28;20028;-74
2021/05/17 08:16:39;;;;;;;0.73;0.30;;;;;;;13.13;67.58;95637.78;5080575;28;20033;-74
2021/05/17 08:19:05;;;;;;;0.20;0.20;;;;;;;12.83;67.70;95637.56;5091868;28;20054;-74
2021/05/17 08:21:32;;;;;;;0.73;0.40;;;;;;;12.60;68.02;95634.25;5089001;28;20032;-74
2021/05/17 08:23:58;;;;;;;0.30;0.30;;;;;;;12.46;68.50;95635.69;5079142;28;20048;-74
2021/05/17 08:26:25;;;;;;;0.45;0.30;;;;;;;12.32;68.40;95636.06;5089346;28;20040;-74
2021/05/17 08:28:52;;;;;;;1.02;0.45;;;;;;;12.24;68.61;95633.09;5089925;28;20028;-74
2021/05/17 08:31:21;;;;;;;0.22;0.22;;;;;;;12.18;68.24;95638.31;5089346;28;20423;-74
2021/05/17 08:33:49;;;;;;;0.43;0.32;;;;;;;12.12;68.09;95644.56;5084581;28;20464;-74
2021/05/17 08:36:16;;;;;;;0.47;0.47;;;;;;;12.08;67.87;95646.09;5080917;28;20045;-74
2021/05/17 08:38:42;;;;;;;0.43;0.43;;;;;;;12.05;68.25;95638.69;5082224;28;20432;-74
2021/05/17 08:41:12;;;;;;;0.50;0.50;;;;;;;12.07;68.24;95647.13;5089916;28;20049;-74
2021/05/17 08:43:40;;;;;;;0.50;0.50;;;;;;;12.15;68.14;95641.44;5084553;28;20039;-74
2021/05/17 08:46:10;;;;;;;0.47;0.25;;;;;;;12.19;67.61;95637.28;5085402;28;20036;-74
2021/05/17 08:48:47;;;;;;;0.50;0.50;;;;;;;12.24;67.05;95644.44;5085531;28;20027;-74
2021/05/17 08:51:35;;;;;;;0.82;0.35;;;;;;;12.30;67.78;95645.25;5083104;28;20052;-74
2021/05/17 08:54:05;;;;;;;1.13;0.35;;;;;;;12.30;67.34;95640.00;5085000;28;20037;-74
2021/05/17 08:56:32;;;;;;;0.70;0.70;;;;;;;12.24;66.90;95633.09;5086917;28;20033;-74
2021/05/17 08:59:01;;;;;;;1.70;0.40;;;;;;;12.13;66.49;95642.72;5087019;28;20032;-74
2021/05/17 09:01:28;;;;;;;1.17;0.43;;;;;;;11.97;66.49;95652.28;5082566;28;20373;-74
2021/05/17 09:04:06;;;;;;;0.70;0.52;;;;;;;11.82;65.51;95642.34;5084730;28;20033;-74
2021/05/17 09:06:39;;;;;;;0.32;0.30;;;;;;;11.73;66.33;95649.09;5085619;28;20048;-74
2021/05/17 09:09:21;;;;;;;0.97;0.40;;;;;;;11.64;67.02;95653.97;5090509;28;20032;-74
2021/05/17 09:11:48;;;;;;;0.65;0.30;;;;;;;11.57;67.20;95659.41;5089069;28;20036;-74
2021/05/17 09:14:15;;;;;;;1.77;0.40;;;;;;;11.57;67.28;95648.91;5082216;28;20051;-74
2021/05/17 09:16:55;;;;;;;0.30;0.30;;;;;;;11.67;67.76;95653.47;5082330;28;20032;-74
2021/05/17 09:19:24;;;;;;;0.50;0.30;;;;;;;11.86;67.52;95646.06;5080355;28;20056;-74
2021/05/17 09:22:10;;;;;;;0.32;0.32;;;;;;;12.07;68.36;95652.38;5085994;28;20491;-74
2021/05/17 09:24:50;;;;;;;0.50;0.30;;;;;;;12.17;66.03;95634.09;5090417;28;20399;-74
2021/05/17 09:27:34;;;;;;;0.73;0.30;;;;;;;12.09;64.84;95623.22;5084097;28;20028;-74
2021/05/17 09:30:04;;;;;;;0.17;0.17;;;;;;;11.92;65.47;95637.25;5087619;28;20055;-74
2021/05/17 09:32:35;;;;;;;0.40;0.38;;;;;;;11.85;66.00;95647.13;5083065;28;20108;-74
2021/05/17 09:35:19;;;;;;;0.30;0.22;;;;;;;11.81;66.38;95648.66;5074745;28;20059;-74
2021/05/17 09:37:58;;;;;;;0.75;0.50;;;;;;;11.86;66.69;95656.59;5088780;28;20056;-74
2021/05/17 09:40:27;;;;;;;0.47;0.32;;;;;;;11.90;66.37;95649.03;5084798;28;20044;-74
2021/05/17 09:43:05;;;;;;;0.55;0.50;;;;;;;12.02;65.46;95641.03;5085152;28;20503;-74
2021/05/17 09:45:38;;;;;;;0.30;0.30;;;;;;;12.29;65.20;95638.44;5083595;28;20497;-74
2021/05/17 09:48:12;;;;;;;1.10;0.40;;;;;;;12.62;65.33;95633.97;5085779;28;20041;-74
2021/05/17 09:50:58;;;;;;;0.32;0.28;;;;;;;12.90;61.66;95614.47;5084354;28;20059;-74
2021/05/17 09:53:33;;;;;;;0.63;0.43;;;;;;;13.09;62.50;95620.13;5076742;28;20036;-74
2021/05/17 09:56:05;;;;;;;0.60;0.60;;;;;;;13.13;63.57;95635.16;5081416;28;20047;-74
2021/05/17 09:58:32;;;;;;;0.30;0.30;;;;;;;13.12;63.42;95644.13;5084014;28;20041;-74
2021/05/17 10:01:27;;;;;;;1.85;0.50;;;;;;;13.01;63.23;95660.88;5086517;28;20472;-74
2021/05/17 10:04:01;;;;;;;0.52;0.47;;;;;;;12.77;63.81;95655.94;5083803;28;20039;-73
2021/05/17 10:06:27;;;;;;;0.50;0.40;;;;;;;12.63;64.32;95652.16;5083037;28;20044;-74
2021/05/17 10:08:55;;;;;;;0.75;0.50;;;;;;;12.48;64.79;95647.53;5084149;28;20036;-74
2021/05/17 10:11:25;;;;;;;1.45;0.47;;;;;;;12.38;65.21;95648.22;5083525;28;20047;-74
2021/05/17 10:13:52;;;;;;;0.50;0.40;;;;;;;12.30;65.50;95656.56;5077847;28;20500;-74
2021/05/17 10:16:20;;;;;;;2.63;0.70;;;;;;;12.25;66.00;95661.00;5085428;28;20137;-74
2021/05/17 10:18:47;;;;;;;1.10;0.45;;;;;;;12.12;66.42;95662.97;5086767;28;20365;-74
2021/05/17 10:21:16;;;;;;;1.10;0.63;;;;;;;12.01;66.81;95665.72;5081004;28;20044;-73
2021/05/17 10:23:43;;;;;;;1.42;0.75;;;;;;;11.91;67.47;95669.03;5079814;28;20055;-74
2021/05/17 10:26:24;;;;;;;0.68;0.52;;;;;;;11.93;70.41;95678.25;5084769;28;20040;-74
2021/05/17 10:28:55;;;;;;;0.50;0.50;;;;;;;12.09;69.09;95675.78;5085595;28;20461;-74
2021/05/17 10:31:23;;;;;;;0.77;0.65;;;;;;;12.28;68.54;95666.53;5082450;28;20040;-74
2021/05/17 10:34:07;;;;;;;3.35;0.73;;;;;;;12.46;71.09;95660.16;5087336;28;20048;-74
2021/05/17 10:36:58;;;;;;;0.60;0.50;;;;;;;12.57;69.73;95667.06;5084816;28;20051;-74
2021/05/17 10:39:32;;;;;;;1.65;0.43;;;;;;;12.55;68.17;95669.16;5074179;28;20444;-74
2021/05/17 10:48:10;;;;;;;0.40;0.40;;;;;;;12.73;68.06;95664.59;5080879;28;20033;-74
2021/05/17 10:50:38;;;;;;;0.20;0.20;;;;;;;13.05;67.80;95672.47;5073345;28;20040;-74
2021/05/17 10:53:05;;;;;;;0.35;0.35;;;;;;;13.46;67.79;95662.25;5083155;28;20054;-74
2021/05/17 10:55:34;;;;;;;0.98;0.50;;;;;;;13.54;65.95;95667.03;5082580;28;20036;-74
2021/05/17 11:00:35;;;;;;;0.60;0.45;;;;;;;13.32;65.82;95658.47;5082371;28;20032;-74
2021/05/17 11:03:09;;;;;;;0.30;0.30;;;;;;;13.04;63.69;95659.56;5074007;28;20048;-74
2021/05/17 11:05:36;;;;;;;0.20;0.20;;;;;;;12.91;65.60;95674.72;5083621;28;20040;-74
2021/05/17 11:08:14;;;;;;;0.20;0.20;;;;;;;12.85;65.58;95674.94;5084067;28;20044;-74
2021/05/17 11:10:42;;;;;;;1.00;0.50;;;;;;;12.80;65.78;95680.97;5076834;28;20041;-74
2021/05/17 11:13:17;;;;;;;0.40;0.35;;;;;;;12.70;65.29;95670.34;5085146;28;20111;-74
2021/05/17 11:15:57;;;;;;;0.85;0.40;;;;;;;12.70;63.78;95670.34;5086546;28;20024;-74
2021/05/17 11:18:36;;;;;;;0.90;0.47;;;;;;;12.71;63.51;95662.22;5088350;28;20431;-75
2021/05/17 11:21:05;;;;;;;1.20;0.40;;;;;;;12.74;64.37;95681.97;5091556;28;20036;-74
2021/05/17 11:23:31;;;;;;;0.20;0.20;;;;;;;12.83;64.47;95677.03;5085033;28;20028;-74
2021/05/17 11:28:39;;;;;;;0.50;0.30;;;;;;;12.88;61.21;95654.19;5084917;28;20040;-74
2021/05/17 11:31:23;;;;;;;0.30;0.30;;;;;;;13.01;61.59;95668.75;5093339;28;20036;-75
2021/05/17 11:34:03;;;;;;;1.10;0.35;;;;;;;13.48;62.94;95673.31;5085982;28;20039;-74
2021/05/17 11:36:34;;;;;;;0.38;0.30;;;;;;;13.81;62.34;95677.41;5083494;28;20047;-74
2021/05/17 11:39:24;;;;;;;0.20;0.20;;;;;;;13.94;58.59;95638.47;5083216;28;20029;-74
2021/05/17 11:41:53;;;;;;;0.55;0.35;;;;;;;14.36;60.06;95658.63;5077158;28;20029;-75
2021/05/17 11:44:23;;;;;;;0.50;0.22;;;;;;;14.63;58.48;95660.28;5092957;28;20031;-76
2021/05/17 11:47:23;;;;;;;0.40;0.17;;;;;;;14.90;55.69;95620.44;5075889;28;20032;-75
2021/05/17 11:49:51;;;;;;;0.77;0.20;;;;;;;14.92;58.71;95653.41;5076624;28;20032;-75
2021/05/17 11:52:22;;;;;;;0.43;0.20;;;;;;;14.86;56.47;95645.78;5084715;28;20028;-75
2021/05/17 11:54:53;;;;;;;0.93;0.20;;;;;;;14.72;55.54;95642.84;5084294;28;20028;-75
2021/05/17 11:57:28;;;;;;;0.88;0.43;;;;;;;14.55;56.72;95651.00;5086478;28;20028;-74
2021/05/17 11:59:54;;;;;;;0.20;0.20;;;;;;;14.52;57.12;95648.91;5084427;28;20492;-75
2021/05/17 12:02:21;;;;;;;0.20;0.20;;;;;;;14.53;56.81;95659.19;5085457;28;20401;-74
2021/05/17 12:04:47;;;;;;;0.10;0.10;;;;;;;14.64;56.88;95651.31;5083397;28;20397;-76
2021/05/17 12:07:16;;;;;;;0.20;0.20;;;;;;;14.73;56.35;95642.59;5088925;28;20059;-75
2021/05/17 12:09:52;;;;;;;0.10;0.10;;;;;;;14.80;54.66;95637.88;5083953;28;20032;-74
2021/05/17 12:12:23;;;;;;;0.52;0.47;;;;;;;14.79;54.42;95631.00;5086380;28;20388;-74
2021/05/17 12:14:51;;;;;;;0.55;0.30;;;;;;;14.86;55.30;95640.50;5076441;28;20032;-75
2021/05/17 12:17:17;;;;;;;0.30;0.30;;;;;;;14.90;55.26;95644.97;5084236;28;20028;-74
2021/05/17 12:19:56;;;;;;;0.40;0.40;;;;;;;15.12;54.50;95630.69;5083272;28;20024;-75